Terminal Aerodrome Forecast
Issued by NWS

Current Version | Previous Version | Graphics & Text | Print | Product List | Glossary On
Versions: 1 2 3 4 5 6 7 8 9 10 11 12 13 14 15 16 17 18 19 20 21
450
FTUS41 KILN 211730
TAFLUK
TAF
KLUK 211730Z 2118/2218 20006KT P6SM FEW050
     FM220000 00000KT P6SM SCT250
     FM220600 00000KT 4SM BR SCT250
      TEMPO 2208/2212 1SM BR
     FM221300 23005KT P6SM SCT045 BKN250=

USA.gov is the U.S. government's official web portal to all federal, state and local government web resources and services.